Terminal Aerodrome Forecast
Issued by NWS Green Bay, WI

Home | Current Version | Previous Version | Text Only | Print | Product List | Glossary On
Versions: 1 2 3 4 5 6 7 8 9 10 11 12 13 14 15 16 17 18 19 20 21 22 23 24 25 26 27 28 29 30 31
000
FTUS43 KGRB 191100
TAFGRB
TAF
KGRB 191129Z 1912/2012 11009KT P6SM BKN070 BKN150 WS013/13040KT
     FM191400 12012G20KT P6SM SCT070 BKN150
     FM200000 07009KT P6SM SCT035 OVC050
     FM200300 05007KT 6SM -RA SCT015 OVC030
     FM200600 35007KT 4SM -RA BKN009 OVC015=

USA.gov is the U.S. government's official web portal to all federal, state and local government web resources and services.